Valparaiso, FL

2:41 AM CDT on September 02, 2015 (GMT -0500)
Eglin Air Force Base | | Change Station
CLOSE
Current Station
Airport
Location: Valparaiso,
Elevation: 85 ft
Nearby Weather Stations

Elev 85 ft 30.48 °N, 86.53 °W | Updated 46 minutes ago

Scattered Clouds
Scattered Clouds
78 °F
Feels Like 78 °F
N
2
Wind Variable Wind from WNW

Today
High -- | Low -- °F
--% Chance of Precip.
Yesterday
High -- | Low -- °F
Precip. -- in
6:23 AM 7:08 PM
Waning Gibbous, 82% visible
Pressure 30.07 in
Visibility 10.0 miles
Clouds Scattered Clouds 25000 ft
Dew Point 71 °F
Humidity 80%
Rainfall 0.00 in
Snow Depth Not available.
UV 0 out of 12
Pollen 7.90 out of 12
Air Quality Not available.
Flu Activity Not available.
METAR KVPS 020655Z 29002KT 10SM SCT250 25/22 A3005 RMK AO2A SLP181 T02540218 $
Pressure 30.07 in
Visibility 10.0 miles
Clouds Scattered Clouds 25000 ft
Dew Point 71 °F
Humidity 80%
Rainfall 0.00 in
Snow Depth Not available.
UV 0 out of 12
Pollen 7.90 out of 12
Air Quality Not available.
Flu Activity Not available.
METAR KVPS 020655Z 29002KT 10SM SCT250 25/22 A3005 RMK AO2A SLP181 T02540218 $

10-Day Weather Forecast

×

Almanac

Astronomy

Sep. 02, 2015 Rise Set
Actual Time
Civil Twilight
Nautical Twilight
Astronomical Twilight
Moon
Length of Visible Light
Length of Day
Tomorrow will be .
, % of the Moon is Illuminated

Today's Extremes

State Highs State Lows

Community

WunderPhotos

Upload Photos

1,851,723 photos uploaded!

WunderBlogs® & News

Nearby

Air Quality

  Air Quality AQ Index Pollutant
Not available.

Snow Depth

Station Depth Elevation

Earthquake Activity

City Distance Mag. Time & Date
Minimum magnitude displayed is 2.5.

Coastal Water Temperatures

Place Temperature

Stations

Nearby Weather Stations

Station Location Temp. Windchill Dew Point Humidity Wind Precip. Elev Updated Type